Latest Weather Observations for Winton

IDQ60801

Issued at 4:03 pm EST Thursday 28 January 2021 (issued every 10 minutes, with the page automatically refreshed every 10 minutes)

About weather observations | Map of weather stations | Latest weather observations for QLD | Other Formats
Station Details ID: 037039 Name: WINTON AIRPORT Lat: -22.36 Lon: 143.08 Height: 192.2 m
Data from the previous 72 hours. | See also: Recent months at Winton
Date/Time
EST
Temp
°C
App
Temp
°C
Dew
Point
°C
Rel
Hum
%
Delta-T
°C
Wind Press
QNH
hPa
Press
MSL
hPa
Rain since
9am
mm
Dir  Spd
km/h
Gust
km/h
Spd
kts
Gust
kts
28/04:00pm 39.1 35.8 12.8 21 16.3 ENE 22 35 12 19 1002.6 1001.1 0.0
28/03:30pm 38.6 36.6 13.8 23 15.5 E 17 30 9 16 1002.8 1001.3 0.0
28/03:00pm 38.6 36.6 13.8 23 15.5 ENE 17 26 9 14 1003.4 1001.9 0.0
28/02:30pm 37.9 34.9 13.8 23 15.0 E 22 37 12 20 1003.7 1002.2 0.0
28/02:00pm 38.5 35.5 13.7 23 15.5 E 22 35 12 19 1004.0 1002.5 0.0
28/01:30pm 37.7 35.0 13.0 23 15.2 E 19 37 10 20 1004.4 1002.9 0.0
28/01:00pm 38.0 36.4 13.9 24 15.1 ENE 15 28 8 15 1004.9 1003.4 0.0
28/12:30pm 37.4 35.2 13.4 24 14.8 ENE 17 24 9 13 1005.4 1003.8 0.0
28/12:00pm 37.6 35.5 14.8 25 14.4 NE 19 26 10 14 1005.8 1004.2 0.0
28/11:30am 36.9 36.5 14.2 25 14.2 ENE 9 20 5 11 1006.3 1004.7 0.0
28/11:00am 35.8 35.0 13.9 27 13.6 N 11 20 6 11 1006.6 1005.0 0.0
28/10:30am 35.2 32.8 13.9 27 13.2 NNE 19 24 10 13 1006.8 1005.2 0.0
28/10:00am 35.0 32.2 14.3 29 12.9 NNE 22 32 12 17 1006.9 1005.4 0.0
28/09:30am 34.5 32.1 14.4 30 12.5 NNE 20 28 11 15 1006.9 1005.4 0.0
28/09:00am 33.7 30.7 14.7 32 11.8 NNE 24 32 13 17 1006.7 1005.1 0.0
28/08:30am 32.5 29.8 14.6 34 11.1 NNE 22 30 12 16 1006.6 1005.0 0.0
28/08:00am 31.2 28.6 16.0 40 9.6 NNE 24 32 13 17 1006.8 1005.2 0.0
28/07:30am 29.9 29.2 18.3 49 7.5 NNE 19 24 10 13 1006.5 1004.9 0.0
28/07:00am 28.5 27.4 17.7 52 6.9 NNE 20 26 11 14 1006.0 1004.4 0.0
28/06:30am 27.6 26.7 16.9 52 6.7 NNE 17 22 9 12 1005.8 1004.2 0.0
28/06:00am 27.4 25.7 15.7 48 7.2 NNE 19 24 10 13 1005.4 1003.8 0.0
28/05:30am 26.8 26.1 14.2 46 7.6 NE 11 17 6 9 1004.9 1003.4 0.0
28/05:00am 27.0 26.1 13.7 44 8.0 NE 11 13 6 7 1004.6 1003.1 0.0
28/04:30am 26.7 26.2 13.8 45 7.7 NE 9 11 5 6 1004.2 1002.7 0.0
28/04:00am 27.5 26.6 13.8 43 8.2 NE 11 13 6 7 1003.9 1002.4 0.0
28/03:30am 28.6 27.3 13.7 40 9.0 NNE 13 15 7 8 1003.8 1002.3 0.0
28/03:00am 28.4 28.1 14.3 42 8.6 NNE 9 9 5 5 1003.7 1002.2 0.0
28/02:30am 29.3 28.5 13.9 39 9.3 NE 11 13 6 7 1003.7 1002.2 0.0
28/02:00am 30.3 29.1 14.0 37 9.9 NE 13 17 7 9 1003.7 1002.2 0.0
28/01:30am 30.7 29.5 13.9 36 10.2 NE 13 19 7 10 1004.1 1002.6 0.0
28/01:00am 30.7 29.5 13.9 36 10.2 ENE 13 17 7 9 1004.1 1002.6 0.0
28/12:30am 31.1 29.8 13.8 34 10.5 NE 13 17 7 9 1004.2 1002.7 0.0
28/12:00am 32.1 30.1 13.8 33 11.2 NE 17 20 9 11 1004.4 1002.9 0.0
 
Date/Time
EST
Temp
°C
App
Temp
°C
Dew
Point
°C
Rel
Hum
%
Delta-T
°C
Wind Press
QNH
hPa
Press
MSL
hPa
Rain since
9am
mm
Dir  Spd
km/h
Gust
km/h
Spd
kts
Gust
kts
27/11:30pm 32.3 30.7 14.0 33 11.2 NE 15 20 8 11 1004.6 1003.1 0.0
27/11:00pm 32.9 30.9 14.0 32 11.6 ENE 17 24 9 13 1004.5 1003.0 0.0
27/10:30pm 33.2 30.8 13.8 31 11.9 ENE 19 22 10 12 1004.4 1002.9 0.0
27/10:00pm 33.8 31.2 13.8 30 12.3 ENE 20 26 11 14 1004.2 1002.7 0.0
27/09:30pm 34.4 31.4 13.8 29 12.7 ENE 22 30 12 16 1003.8 1002.3 0.0
27/09:00pm 34.8 32.5 14.1 28 12.8 ENE 19 26 10 14 1003.5 1002.0 0.0
27/08:30pm 35.3 33.2 14.6 29 12.9 ENE 19 26 10 14 1003.3 1001.8 0.0
27/08:00pm 36.0 33.9 14.6 27 13.4 ENE 19 24 10 13 1003.0 1001.5 0.0
27/07:30pm 36.7 34.4 14.6 26 13.9 ENE 20 30 11 16 1002.6 1001.1 0.0
27/07:00pm 37.4 34.5 14.0 24 14.6 ENE 22 32 12 17 1002.2 1000.7 0.0
27/06:30pm 38.1 34.1 14.0 24 15.1 ENE 28 37 15 20 1001.9 1000.3 0.0
27/06:00pm 38.6 35.8 13.1 22 15.8 E 20 30 11 16 1001.6 1000.0 0.0
27/05:30pm 39.1 36.4 13.5 22 15.9 E 20 37 11 20 1001.5 999.9 0.0
27/05:00pm 39.3 36.9 13.7 22 16.1 ENE 19 28 10 15 1001.3 999.7 0.0
27/04:30pm 39.4 38.3 14.4 22 15.8 E 13 22 7 12 1001.4 999.8 0.0
27/04:00pm 39.6 38.0 13.9 22 16.2 E 15 30 8 16 1001.5 999.9 0.0
27/03:30pm 39.7 38.1 14.0 22 16.1 ENE 15 24 8 13 1001.8 1000.2 0.0
27/03:00pm 40.0 38.9 14.2 21 16.3 NE 13 26 7 14 1002.1 1000.5 0.0
27/02:30pm 38.8 37.2 13.9 22 15.6 NNE 15 24 8 13 1002.5 1001.0 0.0
27/02:00pm 39.1 36.6 14.2 23 15.7 ENE 20 28 11 15 1002.9 1001.4 0.0
27/01:30pm 40.0 39.1 14.9 22 16.0 NE 13 32 7 17 1003.4 1001.9 0.0
27/01:00pm 38.2 37.2 14.7 24 14.9 NE 13 20 7 11 1003.8 1002.3 0.0
27/12:30pm 37.5 36.6 15.9 28 13.8 N 15 22 8 12 1004.3 1002.8 0.0
27/12:00pm 37.7 37.7 17.1 29 13.4 NNW 13 32 7 17 1004.7 1003.2 0.0
27/11:30am 37.6 37.8 17.6 31 13.1 N 13 24 7 13 1005.2 1003.6 0.0
27/11:00am 36.8 35.7 17.4 32 12.7 N 19 30 10 16 1005.6 1004.0 0.0
27/10:30am 35.8 34.8 17.9 34 11.7 N 20 32 11 17 1005.8 1004.2 0.0
27/10:00am 35.0 33.3 18.1 36 11.1 N 24 33 13 18 1005.8 1004.2 0.0
27/09:30am 34.5 32.6 18.5 38 10.5 N 26 35 14 19 1005.9 1004.3 0.0
27/09:00am 33.6 31.0 17.7 38 10.3 N 28 39 15 21 1005.6 1004.0 0.0
27/08:30am 33.1 30.3 18.1 41 9.8 N 30 41 16 22 1005.4 1003.8 0.0
27/08:00am 31.6 29.0 17.9 44 8.9 N 28 37 15 20 1005.5 1003.9 0.0
27/07:30am 30.0 27.8 17.8 48 7.8 NNE 26 33 14 18 1005.4 1003.8 0.0
27/07:00am 29.2 27.5 17.1 48 7.7 NNE 22 30 12 16 1004.8 1003.3 0.0
27/06:30am 28.4 27.1 16.7 49 7.4 NE 19 24 10 13 1004.5 1003.0 0.0
27/06:00am 28.0 26.9 16.3 49 7.3 NE 17 20 9 11 1004.2 1002.7 0.0
27/05:30am 27.7 27.0 15.4 47 7.6 NE 13 15 7 8 1003.7 1002.2 0.0
27/05:00am 28.0 27.3 15.3 46 7.8 NE 13 15 7 8 1003.3 1001.8 0.0
27/04:30am 28.1 27.3 15.1 45 8.0 NE 13 19 7 10 1003.0 1001.5 0.0
27/04:00am 27.6 27.3 14.3 44 8.1 NE 9 11 5 6 1002.9 1001.4 0.0
27/03:30am 28.0 27.7 14.3 43 8.3 NE 9 11 5 6 1002.9 1001.4 0.0
27/03:00am 28.9 28.6 14.3 40 8.9 NE 9 13 5 7 1002.9 1001.4 0.0
27/02:30am 29.2 28.3 13.8 39 9.3 NE 11 11 6 6 1002.9 1001.4 0.0
27/02:00am 30.1 29.0 14.2 38 9.7 NE 13 17 7 9 1002.8 1001.3 0.0
27/01:30am 30.0 28.6 13.3 36 10.0 NE 13 15 7 8 1002.9 1001.4 0.0
27/01:00am 30.1 29.0 13.0 35 10.3 ENE 11 13 6 7 1003.1 1001.6 0.0
27/12:30am 30.5 29.2 13.7 35 10.2 ENE 13 15 7 8 1003.3 1001.8 0.0
27/12:00am 30.5 31.4 16.5 43 8.9 NE 7 11 4 6 1003.4 1001.9 0.0
 
Date/Time
EST
Temp
°C
App
Temp
°C
Dew
Point
°C
Rel
Hum
%
Delta-T
°C
Wind Press
QNH
hPa
Press
MSL
hPa
Rain since
9am
mm
Dir  Spd
km/h
Gust
km/h
Spd
kts
Gust
kts
26/11:30pm 30.8 32.2 17.8 45 8.4 NE 7 9 4 5 1003.5 1002.0 0.0
26/11:00pm 31.7 32.9 18.3 45 8.7 NE 9 9 5 5 1003.7 1002.2 0.0
26/10:30pm 32.3 34.0 18.5 44 9.0 NE 7 11 4 6 1003.7 1002.2 0.0
26/10:00pm 33.6 35.5 18.5 40 9.9 N 6 7 3 4 1003.4 1001.9 0.0
26/09:30pm 34.4 35.3 18.4 38 10.5 N 11 13 6 7 1003.2 1001.7 0.0
26/09:00pm 34.9 36.8 18.5 38 10.8 NNW 6 9 3 5 1002.8 1001.3 0.0
26/08:30pm 35.4 34.6 18.0 35 11.4 NW 19 24 10 13 1002.0 1000.4 0.0
26/08:00pm 36.1 35.6 17.7 33 12.1 NNW 17 22 9 12 1001.5 999.9 0.0
26/07:30pm 36.2 34.0 16.9 32 12.5 NNW 24 33 13 18 1001.0 999.4 0.0
26/07:00pm 37.3 36.0 15.7 27 13.8 N 17 26 9 14 1000.4 998.8 0.0
26/06:30pm 40.1 39.2 13.6 21 16.6 NE 11 15 6 8 999.5 998.0 0.0
26/06:00pm 40.3 37.9 11.4 18 17.6 SE 15 24 8 13 999.2 997.7 0.0
26/05:30pm 40.8 40.2 11.8 18 17.7 SSW 6 13 3 7 999.2 997.7 0.0
26/05:00pm 40.0 39.2 11.2 18 17.5 ESE 6 11 3 6 999.2 997.7 0.0
26/04:30pm 40.3 39.7 12.2 19 17.3 ENE 7 13 4 7 999.3 997.8 0.0
26/04:00pm 40.2 39.5 12.1 19 17.3 E 7 17 4 9 999.8 998.2 0.0
26/03:30pm 40.5 40.2 13.2 20 17.0 NNW 7 11 4 6 1000.1 998.5 0.0
26/03:00pm 39.8 39.2 13.4 21 16.5 SSW 9 19 5 10 1000.5 998.9 0.0
26/02:32pm 39.9 39.8 13.4 21 16.5 NNE 6 9 3 5 1000.9 999.3 0.0
26/02:30pm 40.0 40.0 13.5 21 16.6 N 6 9 3 5 1000.9 999.3 0.0
26/02:14pm 39.6 38.9 13.2 21 16.4 WSW 9 15 5 8 1001.2 999.6 0.0
26/02:00pm 40.0 38.6 13.5 21 16.6 W 13 22 7 12 1001.4 999.8 0.0
26/01:30pm 39.7 39.3 14.0 22 16.1 S 9 19 5 10 1001.8 1000.2 0.0
26/01:00pm 38.6 37.7 13.8 23 15.5 W 11 20 6 11 1002.3 1000.8 0.0
26/12:30pm 37.3 36.6 13.3 23 14.8 WSW 9 17 5 9 1003.0 1001.5 0.0
26/12:00pm 38.3 39.0 16.0 27 14.4 W 7 19 4 10 1003.5 1002.0 0.0
26/11:30am 37.7 37.3 17.1 29 13.4 W 15 26 8 14 1003.9 1002.4 0.0
26/11:00am 36.8 36.7 17.9 33 12.4 NNW 15 22 8 12 1004.3 1002.8 0.0
26/10:37am 35.8 34.4 17.0 32 12.2 WNW 20 30 11 16 1004.8 1003.3 0.0
26/10:30am 35.8 34.6 17.5 34 11.9 NW 20 32 11 17 1004.8 1003.3 0.0
26/10:21am 35.6 34.5 17.8 35 11.6 NW 20 35 11 19 1005.0 1003.5 0.0
26/10:14am 35.6 34.3 17.3 33 11.9 NW 20 39 11 21 1005.0 1003.5 0.0
26/10:00am 35.0 33.7 18.1 36 11.1 NNW 22 32 12 17 1005.2 1003.6 0.0
26/09:54am 34.4 32.5 17.6 37 10.9 NNW 24 33 13 18 1005.3 1003.7 0.0
26/09:30am 34.4 31.6 17.2 36 11.1 N 28 37 15 20 1005.4 1003.8 0.0
26/09:00am 33.1 30.3 17.3 39 10.2 N 28 35 15 19 1005.4 1003.8 0.0
26/08:30am 32.0 28.6 16.7 40 9.7 N 30 43 16 23 1005.3 1003.7 0.0
26/08:00am 30.5 27.7 15.4 40 9.4 NNE 24 32 13 17 1005.2 1003.6 0.0
26/07:30am 29.5 27.5 14.9 41 9.0 NNE 19 24 10 13 1004.9 1003.4 0.0
26/07:00am 28.1 26.2 14.3 42 8.4 NNE 17 22 9 12 1004.7 1003.2 0.0
26/06:30am 27.1 25.2 14.1 44 7.8 NE 17 20 9 11 1004.1 1002.6 0.0
26/06:00am 26.5 25.0 14.3 47 7.4 NE 15 19 8 10 1003.8 1002.3 0.0
26/05:30am 26.7 25.4 14.8 48 7.2 NE 15 20 8 11 1003.4 1001.9 0.0
26/05:00am 27.1 25.4 14.8 47 7.5 NE 17 20 9 11 1003.2 1001.7 0.0
26/04:30am 27.3 25.7 15.0 47 7.5 NE 17 20 9 11 1003.2 1001.7 0.0
26/04:00am 28.0 26.9 15.3 46 7.8 NE 15 22 8 12 1003.2 1001.7 0.0
26/03:30am 28.2 26.6 15.1 44 8.0 NE 17 20 9 11 1003.2 1001.7 0.0
26/03:00am 28.6 26.7 15.2 44 8.3 NE 19 24 10 13 1003.2 1001.7 0.0
26/02:30am 28.7 26.7 14.9 43 8.4 NE 19 24 10 13 1003.3 1001.8 0.0
26/02:00am 28.9 26.5 14.3 40 8.9 ENE 20 28 11 15 1003.4 1001.9 0.0
26/01:30am 29.2 25.8 13.8 39 9.3 ENE 24 32 13 17 1003.7 1002.2 0.0
26/01:00am 29.3 26.0 12.7 36 9.9 ENE 22 28 12 15 1004.1 1002.6 0.0
26/12:30am 29.7 26.1 11.7 33 10.5 ENE 22 30 12 16 1004.1 1002.6 0.0
26/12:00am 30.0 27.2 11.5 32 10.8 ENE 17 20 9 11 1004.5 1003.0 0.0
 
Date/Time
EST
Temp
°C
App
Temp
°C
Dew
Point
°C
Rel
Hum
%
Delta-T
°C
Wind Press
QNH
hPa
Press
MSL
hPa
Rain since
9am
mm
Dir  Spd
km/h
Gust
km/h
Spd
kts
Gust
kts
25/11:30pm 30.4 27.2 11.4 31 11.1 ENE 19 22 10 12 1004.6 1003.1 0.0
25/11:00pm 30.7 28.0 11.6 31 11.2 ENE 17 20 9 11 1004.8 1003.3 0.0
25/10:30pm 31.0 28.2 11.4 30 11.5 ENE 17 22 9 12 1004.8 1003.3 0.0
25/10:00pm 31.9 28.5 11.1 28 12.2 ENE 20 26 11 14 1004.4 1002.9 0.0
25/09:30pm 32.5 28.7 11.1 27 12.5 ENE 22 28 12 15 1004.0 1002.5 0.0
25/09:00pm 33.3 29.7 10.6 25 13.3 ENE 20 28 11 15 1003.7 1002.2 0.0
25/08:30pm 34.1 30.5 10.7 24 13.7 E 20 26 11 14 1003.2 1001.7 0.0
25/08:00pm 34.8 31.4 10.6 23 14.3 ENE 19 24 10 13 1003.0 1001.5 0.0
25/07:30pm 35.5 32.1 9.1 20 15.2 E 17 24 9 13 1002.7 1001.2 0.0
25/07:00pm 36.6 32.8 9.2 19 15.9 E 19 30 10 16 1002.5 1001.0 0.0
25/06:30pm 37.0 33.5 10.3 20 15.8 ENE 19 24 10 13 1002.2 1000.7 0.0
25/06:00pm 37.5 36.2 9.2 18 16.5 E 6 13 3 7 1002.1 1000.5 0.0
25/05:30pm 38.5 36.2 9.1 17 17.2 E 11 19 6 10 1002.1 1000.5 0.0
25/05:00pm 38.5 36.5 10.0 18 16.9 ENE 11 22 6 12 1002.2 1000.7 0.0
25/04:30pm 38.6 35.3 10.9 19 16.6 ENE 19 26 10 14 1002.4 1000.9 0.0

Other formats

Comma delimited format used in spreadsheet applications
http://www.bom.gov.au/fwo/IDQ60801/IDQ60801.94342.axf

JavaScript Object Notation format (JSON) in row-major order
http://www.bom.gov.au/fwo/IDQ60801/IDQ60801.94342.json

Data quality

Most of these data are generated automatically and are frequently updated. Quality checks on data are not normally performed. It is possible for incorrect values to appear. Refer to information at About Latest Weather Observations and please check the disclaimer before using these data.